createdAt,value
2023-03-13T00:01:27.850Z,99898.16
2023-03-13T00:03:55.393Z,99889.72
2023-03-13T00:06:28.724Z,99890.31
2023-03-13T00:08:55.780Z,99883.81
2023-03-13T00:11:22.218Z,99881.34
2023-03-13T00:13:48.614Z,99881.63
2023-03-13T00:16:16.597Z,99877.50
2023-03-13T00:18:48.047Z,99878.28
2023-03-13T00:21:18.161Z,99874.28
2023-03-13T00:23:45.564Z,99873.53
2023-03-13T00:26:15.083Z,99865.66
2023-03-13T00:28:42.536Z,99864.63
2023-03-13T00:31:19.987Z,99862.91
2023-03-13T00:33:53.049Z,99864.25
2023-03-13T00:36:21.792Z,99855.38
2023-03-13T00:38:48.516Z,99855.56
2023-03-13T00:41:18.139Z,99856.25
2023-03-13T00:43:46.014Z,99855.75
2023-03-13T00:46:13.887Z,99847.25
2023-03-13T00:48:40.838Z,99849.69
2023-03-13T00:51:09.540Z,99845.84
2023-03-13T00:53:36.537Z,99822.88
2023-03-13T00:56:06.092Z,99833.16
2023-03-13T00:58:36.154Z,99824.75
2023-03-13T01:01:16.803Z,99824.28
2023-03-13T01:03:46.848Z,99824.91
2023-03-13T01:06:16.402Z,99820.84
2023-03-13T01:08:43.049Z,99816.03
2023-03-13T01:11:15.718Z,99813.38
2023-03-13T01:13:42.858Z,99809.00
2023-03-13T01:16:13.789Z,99803.66
2023-03-13T01:18:44.593Z,99791.63
2023-03-13T01:21:12.060Z,99795.75
2023-03-13T01:23:38.635Z,99796.56
2023-03-13T01:26:07.124Z,99799.56
2023-03-13T01:28:34.747Z,99782.22
2023-03-13T01:31:03.205Z,99774.16
2023-03-13T01:33:29.992Z,99770.06
2023-03-13T01:36:04.563Z,99777.97
2023-03-13T01:38:31.359Z,99764.78
2023-03-13T01:40:57.979Z,99759.97
2023-03-13T01:43:27.878Z,99757.78
2023-03-13T01:46:17.821Z,99750.22
2023-03-13T01:49:27.181Z,99743.47
2023-03-13T01:52:10.558Z,99741.31
2023-03-13T01:55:12.490Z,99714.97
2023-03-13T01:57:44.659Z,99717.72
2023-03-13T02:00:16.555Z,99707.16
2023-03-13T02:02:50.374Z,99700.50
2023-03-13T02:05:20.942Z,99691.53
2023-03-13T02:08:33.882Z,99676.44
2023-03-13T02:11:15.997Z,99674.78
2023-03-13T02:13:43.525Z,99668.84
2023-03-13T02:16:10.869Z,99663.16
2023-03-13T02:18:38.297Z,99659.38
2023-03-13T02:21:16.554Z,99654.53
2023-03-13T02:23:55.600Z,99646.03
2023-03-13T02:26:22.099Z,99645.28
2023-03-13T02:28:48.650Z,99641.19
2023-03-13T02:31:17.233Z,99628.16
2023-03-13T02:33:44.704Z,99624.16
2023-03-13T02:36:16.512Z,99625.97
2023-03-13T02:38:51.507Z,99613.59
2023-03-13T02:41:19.795Z,99602.50
2023-03-13T02:43:46.247Z,99597.09
2023-03-13T02:46:18.928Z,99583.06
2023-03-13T02:48:51.436Z,99577.31
2023-03-13T02:51:22.479Z,99565.75
2023-03-13T02:53:51.092Z,99564.13
2023-03-13T02:56:21.559Z,99559.38
2023-03-13T02:58:50.366Z,99540.94
2023-03-13T03:01:20.634Z,99536.66
2023-03-13T03:03:47.299Z,99531.34
2023-03-13T03:06:13.826Z,99525.31
2023-03-13T03:08:41.523Z,99516.38
2023-03-13T03:11:10.526Z,99518.22
2023-03-13T03:13:37.111Z,99509.94
2023-03-13T03:16:09.636Z,99492.06
2023-03-13T03:18:38.002Z,99498.50
2023-03-13T03:21:06.340Z,99492.25
2023-03-13T03:23:37.056Z,99486.09
2023-03-13T03:26:05.618Z,99479.94
2023-03-13T03:28:32.982Z,99458.81
2023-03-13T03:31:07.922Z,99464.28
2023-03-13T03:33:36.494Z,99443.50
2023-03-13T03:36:08.978Z,99441.81
2023-03-13T03:38:36.476Z,99440.41
2023-03-13T03:41:03.380Z,99435.44
2023-03-13T03:43:31.285Z,99436.50
2023-03-13T03:45:58.542Z,99427.16
2023-03-13T03:48:25.869Z,99429.34
2023-03-13T03:50:52.523Z,99434.59
2023-03-13T03:53:19.869Z,99421.34
2023-03-13T03:55:46.371Z,99420.00
2023-03-13T03:58:13.152Z,99418.41
2023-03-13T04:01:02.272Z,99418.88
2023-03-13T04:03:30.509Z,99418.84
2023-03-13T04:05:57.346Z,99417.06
2023-03-13T04:08:24.587Z,99405.06
2023-03-13T04:10:51.810Z,99393.78
2023-03-13T04:13:21.820Z,99388.44
2023-03-13T04:15:48.945Z,99383.88
2023-03-13T04:18:16.996Z,99376.88
2023-03-13T04:20:44.345Z,99373.06
2023-03-13T04:23:11.414Z,99367.88
2023-03-13T04:25:38.204Z,99369.84
2023-03-13T04:28:08.932Z,99363.72
2023-03-13T04:30:40.764Z,99356.69
2023-03-13T04:33:26.132Z,99352.63
2023-03-13T04:36:04.963Z,99351.28
2023-03-13T04:38:57.970Z,99332.97
2023-03-13T04:41:55.115Z,99337.97
2023-03-13T04:44:35.724Z,99336.38
2023-03-13T04:47:22.462Z,99316.97
2023-03-13T04:50:15.417Z,99330.72
2023-03-13T04:52:50.407Z,99317.59
2023-03-13T04:55:30.216Z,99311.78
2023-03-13T04:58:05.511Z,99306.91
2023-03-13T05:00:53.790Z,99294.53
2023-03-13T05:03:49.552Z,99286.72
2023-03-13T05:06:25.658Z,99294.09
2023-03-13T05:09:04.778Z,99287.22
2023-03-13T05:11:50.698Z,99282.94
2023-03-13T05:14:37.430Z,99278.53
2023-03-13T05:17:22.581Z,99274.00
2023-03-13T05:20:11.162Z,99270.94
2023-03-13T05:22:47.505Z,99275.25
2023-03-13T05:25:30.947Z,99265.47
2023-03-13T05:28:09.876Z,99255.09
2023-03-13T05:30:48.280Z,99246.41
2023-03-13T05:33:31.864Z,99242.44
2023-03-13T05:36:26.331Z,99243.03
2023-03-13T05:38:55.624Z,99234.69
2023-03-13T05:41:34.124Z,99242.44
2023-03-13T05:44:15.991Z,99233.00
2023-03-13T05:47:02.360Z,99232.91
2023-03-13T05:49:42.003Z,99220.81
2023-03-13T05:52:18.978Z,99234.91
2023-03-13T05:55:09.065Z,99229.56
2023-03-13T05:57:55.633Z,99223.75
2023-03-13T06:00:32.908Z,99226.78
2023-03-13T06:03:25.363Z,99216.72
2023-03-13T06:05:59.134Z,99221.38
2023-03-13T06:08:47.416Z,99220.16
2023-03-13T06:11:14.552Z,99213.41
2023-03-13T06:13:41.268Z,99200.72
2023-03-13T06:16:30.680Z,99213.88
2023-03-13T06:19:11.935Z,99196.25
2023-03-13T06:21:39.013Z,99186.59
2023-03-13T06:24:05.888Z,99191.19
2023-03-13T06:26:32.442Z,99186.75
2023-03-13T06:28:59.171Z,99185.94
2023-03-13T06:31:25.864Z,99181.91
2023-03-13T06:33:55.949Z,99179.81
2023-03-13T06:36:24.250Z,99186.59
2023-03-13T06:38:51.511Z,99176.09
2023-03-13T06:41:18.352Z,99166.72
2023-03-13T06:43:44.785Z,99163.81
2023-03-13T06:46:17.616Z,99160.69
2023-03-13T06:48:44.535Z,99154.56
2023-03-13T06:51:13.007Z,99164.56
2023-03-13T06:53:39.492Z,99154.13
2023-03-13T06:56:06.677Z,99148.47
2023-03-13T06:58:33.421Z,99149.16
2023-03-13T07:01:06.507Z,99144.47
2023-03-13T07:03:33.432Z,99171.56
2023-03-13T07:06:00.609Z,99145.16
2023-03-13T07:08:27.617Z,99146.97
2023-03-13T07:10:58.095Z,99148.00
2023-03-13T07:13:24.607Z,99156.56
2023-03-13T07:15:51.490Z,99159.63
2023-03-13T07:18:17.996Z,99141.59
2023-03-13T07:20:44.532Z,99144.50
2023-03-13T07:23:11.051Z,99140.03
2023-03-13T07:25:37.443Z,99144.84
2023-03-13T07:28:03.953Z,99148.91
2023-03-13T07:30:30.681Z,99162.53
2023-03-13T07:32:58.636Z,99165.09
2023-03-13T07:35:25.094Z,99156.63
2023-03-13T07:37:52.181Z,99154.91
2023-03-13T07:40:18.646Z,99161.25
2023-03-13T07:42:45.138Z,99164.31
2023-03-13T07:45:12.073Z,99161.78
2023-03-13T07:47:38.558Z,99164.97
2023-03-13T07:50:05.622Z,99172.50
2023-03-13T07:52:32.536Z,99176.69
2023-03-13T07:54:59.430Z,99175.03
2023-03-13T07:57:25.890Z,99162.31
2023-03-13T07:59:52.270Z,99172.22
2023-03-13T08:02:18.857Z,99174.75
2023-03-13T08:04:45.357Z,99172.34
2023-03-13T08:07:12.222Z,99175.13
2023-03-13T08:09:38.814Z,99161.03
2023-03-13T08:12:06.381Z,99170.97
2023-03-13T08:14:32.835Z,99159.94
2023-03-13T08:16:59.517Z,99160.72
2023-03-13T08:19:26.119Z,99160.25
2023-03-13T08:21:52.578Z,99160.41
2023-03-13T08:24:19.341Z,99159.31
2023-03-13T08:26:45.752Z,99141.44
2023-03-13T08:29:14.816Z,99144.16
2023-03-13T08:31:49.044Z,99142.69
2023-03-13T08:34:17.699Z,99142.53
2023-03-13T08:36:44.952Z,99159.22
2023-03-13T08:39:16.387Z,99156.31
2023-03-13T08:41:43.300Z,99159.53
2023-03-13T08:44:15.244Z,99141.94
2023-03-13T08:46:43.835Z,99148.31
2023-03-13T08:49:12.135Z,99151.19
2023-03-13T08:51:39.474Z,99142.88
2023-03-13T08:54:06.600Z,99133.28
2023-03-13T08:56:34.905Z,99123.34
2023-03-13T08:59:04.662Z,99126.06
2023-03-13T09:01:33.460Z,99131.34
2023-03-13T09:04:03.966Z,99117.91
2023-03-13T09:06:32.604Z,99127.19
2023-03-13T09:08:59.386Z,99124.28
2023-03-13T09:11:26.494Z,99119.50
2023-03-13T09:13:55.181Z,99115.34
2023-03-13T09:16:29.822Z,99124.13
2023-03-13T09:18:57.365Z,99121.38
2023-03-13T09:21:34.989Z,99148.28
2023-03-13T09:24:02.604Z,99113.22
2023-03-13T09:26:29.722Z,99117.72
2023-03-13T09:28:56.669Z,99118.34
2023-03-13T09:31:24.586Z,99110.16
2023-03-13T09:33:51.656Z,99107.63
2023-03-13T09:36:22.427Z,99114.19
2023-03-13T09:38:54.421Z,99114.81
2023-03-13T09:41:42.060Z,99115.78
2023-03-13T09:44:22.344Z,99114.53
2023-03-13T09:47:00.941Z,99101.84
2023-03-13T09:49:42.005Z,99101.53
2023-03-13T09:52:26.221Z,99102.16
2023-03-13T09:55:20.948Z,99105.22
2023-03-13T09:57:54.243Z,99101.03
2023-03-13T10:00:25.812Z,99104.72
2023-03-13T10:03:12.983Z,99105.66
2023-03-13T10:05:49.258Z,99109.53
2023-03-13T10:08:22.956Z,99101.34
2023-03-13T10:11:00.947Z,99104.41
2023-03-13T10:13:44.929Z,99107.41
2023-03-13T10:16:19.385Z,99108.25
2023-03-13T10:18:55.357Z,99106.81
2023-03-13T10:21:24.744Z,99095.53
2023-03-13T10:24:25.308Z,99097.75
2023-03-13T10:26:51.771Z,99094.34
2023-03-13T10:29:23.669Z,99086.97
2023-03-13T10:32:12.721Z,99068.78
2023-03-13T10:35:00.557Z,99071.91
2023-03-13T10:37:30.306Z,99072.44
2023-03-13T10:40:15.266Z,99068.53
2023-03-13T10:42:45.866Z,99055.34
2023-03-13T10:45:18.532Z,99070.91
2023-03-13T10:47:45.147Z,99057.88
2023-03-13T10:50:20.628Z,99068.81
2023-03-13T10:52:48.688Z,99050.38
2023-03-13T10:55:20.365Z,99060.63
2023-03-13T10:58:02.675Z,99068.47
2023-03-13T11:00:35.514Z,99046.47
2023-03-13T11:03:06.869Z,99057.66
2023-03-13T11:05:37.960Z,99053.72
2023-03-13T11:08:16.295Z,99044.94
2023-03-13T11:10:53.257Z,99039.59
2023-03-13T11:13:38.109Z,99034.13
2023-03-13T11:16:23.471Z,99039.72
2023-03-13T11:19:07.936Z,99038.47
2023-03-13T11:21:44.422Z,99015.47
2023-03-13T11:24:24.817Z,99005.06
2023-03-13T11:27:07.915Z,99017.25
2023-03-13T11:29:57.043Z,99016.47
2023-03-13T11:32:31.713Z,99008.50
2023-03-13T11:35:07.838Z,98999.72
2023-03-13T11:37:38.988Z,99005.66
2023-03-13T11:40:31.817Z,98998.66
2023-03-13T11:43:35.359Z,98983.66
2023-03-13T11:46:29.585Z,98995.38
2023-03-13T11:49:20.828Z,98984.34
2023-03-13T11:52:12.690Z,98988.94
2023-03-13T11:54:58.660Z,98990.03
2023-03-13T11:57:30.987Z,99019.91
2023-03-13T12:00:06.546Z,98992.00
2023-03-13T12:02:48.312Z,98993.53
2023-03-13T12:05:18.466Z,98991.06
2023-03-13T12:08:09.849Z,98972.31
2023-03-13T12:10:58.542Z,98979.00
2023-03-13T12:14:01.008Z,98980.81
2023-03-13T12:16:47.365Z,98965.00
2023-03-13T12:19:21.930Z,98971.25
2023-03-13T12:21:54.669Z,98962.78
2023-03-13T12:24:32.716Z,98964.91
2023-03-13T12:27:05.663Z,98975.53
2023-03-13T12:29:53.379Z,98963.38
2023-03-13T12:32:29.615Z,98959.09
2023-03-13T12:35:18.293Z,98945.41
2023-03-13T12:37:50.646Z,98950.25
2023-03-13T12:40:22.893Z,98960.97
2023-03-13T12:43:05.233Z,98939.63
2023-03-13T12:45:33.740Z,98949.50
2023-03-13T12:48:23.351Z,98946.25
2023-03-13T12:51:28.548Z,98931.94
2023-03-13T12:54:04.015Z,98918.41
2023-03-13T12:56:40.554Z,98923.81
2023-03-13T12:59:19.289Z,98938.75
2023-03-13T13:01:50.969Z,98928.50
2023-03-13T13:04:24.734Z,98923.28
2023-03-13T13:07:06.258Z,98905.75
2023-03-13T13:09:39.227Z,98924.16
2023-03-13T13:12:14.492Z,98904.63
2023-03-13T13:14:50.102Z,98908.41
2023-03-13T13:17:42.173Z,98904.34
2023-03-13T13:20:30.523Z,98886.16
2023-03-13T13:22:57.743Z,98905.31
2023-03-13T13:25:24.112Z,98891.72
2023-03-13T13:27:50.741Z,98876.63
2023-03-13T13:30:17.106Z,98875.63
2023-03-13T13:32:49.174Z,98881.84
2023-03-13T13:35:20.110Z,98875.38
2023-03-13T13:37:49.428Z,98851.84
2023-03-13T13:40:16.205Z,98859.00
2023-03-13T13:43:05.582Z,98853.19
2023-03-13T13:45:39.128Z,98846.03
2023-03-13T13:48:27.805Z,98851.75
2023-03-13T13:51:14.100Z,98859.56
2023-03-13T13:53:50.771Z,98851.97
2023-03-13T13:56:32.337Z,98848.28
2023-03-13T13:59:20.943Z,98850.81
2023-03-13T14:01:49.857Z,98839.84
2023-03-13T14:04:24.859Z,98850.09
2023-03-13T14:06:52.794Z,98855.88
2023-03-13T14:09:40.768Z,98848.78
2023-03-13T14:12:38.232Z,98841.03
2023-03-13T14:15:19.098Z,98837.22
2023-03-13T14:17:54.707Z,98857.41
2023-03-13T14:20:27.264Z,98849.94
2023-03-13T14:22:56.135Z,98837.50
2023-03-13T14:25:24.608Z,98819.84
2023-03-13T14:27:52.316Z,98825.44
2023-03-13T14:30:20.716Z,98822.06
2023-03-13T14:32:48.016Z,98817.88
2023-03-13T14:35:19.488Z,98826.59
2023-03-13T14:37:48.157Z,98810.84
2023-03-13T14:40:27.641Z,98807.19
2023-03-13T14:42:57.366Z,98813.38
2023-03-13T14:45:33.087Z,98812.22
2023-03-13T14:48:03.496Z,98815.03
2023-03-13T14:50:30.030Z,98812.31
2023-03-13T14:53:05.251Z,98798.72
2023-03-13T14:55:35.468Z,98816.28
2023-03-13T14:58:05.520Z,98795.94
2023-03-13T15:00:41.276Z,98807.38
2023-03-13T15:03:16.899Z,98787.09
2023-03-13T15:05:45.357Z,98776.44
2023-03-13T15:08:24.607Z,98769.34
2023-03-13T15:10:51.226Z,98776.56
2023-03-13T15:13:43.938Z,98769.00
2023-03-13T15:16:21.752Z,98767.31
2023-03-13T15:18:51.028Z,98767.19
2023-03-13T15:21:22.145Z,98769.50
2023-03-13T15:24:10.073Z,98767.84
2023-03-13T15:26:36.545Z,98762.06
2023-03-13T15:29:03.030Z,98742.16
2023-03-13T15:31:30.010Z,98749.59
2023-03-13T15:33:59.645Z,98745.59
2023-03-13T15:36:28.130Z,98734.59
2023-03-13T15:38:54.962Z,98736.31
2023-03-13T15:41:22.317Z,98721.72
2023-03-13T15:43:56.917Z,98720.88
2023-03-13T15:46:25.318Z,98721.28
2023-03-13T15:48:52.194Z,98724.13
2023-03-13T15:51:18.839Z,98720.56
2023-03-13T15:53:46.110Z,98711.97
2023-03-13T15:56:18.102Z,98713.47
2023-03-13T15:58:45.822Z,98720.03
2023-03-13T16:01:13.893Z,98714.63
2023-03-13T16:03:41.261Z,98709.13
2023-03-13T16:06:17.392Z,98701.97
2023-03-13T16:08:45.021Z,98700.66
2023-03-13T16:11:16.727Z,98690.78
2023-03-13T16:13:43.363Z,98686.47
2023-03-13T16:16:19.410Z,98682.84
2023-03-13T16:18:47.034Z,98679.09
2023-03-13T16:21:19.582Z,98667.69
2023-03-13T16:23:46.089Z,98676.16
2023-03-13T16:26:16.222Z,98661.00
2023-03-13T16:28:42.772Z,98660.91
2023-03-13T16:31:17.064Z,98660.38
2023-03-13T16:33:43.773Z,98670.00
2023-03-13T16:36:15.326Z,98654.63
2023-03-13T16:38:41.969Z,98659.75
2023-03-13T16:41:10.833Z,98667.88
2023-03-13T16:43:37.364Z,98666.22
2023-03-13T16:46:06.456Z,98670.00
2023-03-13T16:48:33.086Z,98671.06
2023-03-13T16:50:59.810Z,98667.28
2023-03-13T16:53:26.337Z,98676.81
2023-03-13T16:55:54.917Z,98666.94
2023-03-13T16:58:21.445Z,98665.34
2023-03-13T17:01:02.747Z,98657.34
2023-03-13T17:03:31.491Z,98649.75
2023-03-13T17:05:57.945Z,98647.28
2023-03-13T17:08:24.354Z,98643.72
2023-03-13T17:10:50.824Z,98648.94
2023-03-13T17:13:20.085Z,98649.56
2023-03-13T17:15:46.511Z,98644.00
2023-03-13T17:18:12.932Z,98639.34
2023-03-13T17:20:39.601Z,98626.34
2023-03-13T17:23:05.996Z,98630.03
2023-03-13T17:25:33.156Z,98615.31
2023-03-13T17:27:59.828Z,98621.94
2023-03-13T17:30:30.288Z,98628.53
2023-03-13T17:32:59.260Z,98633.00
2023-03-13T17:35:25.754Z,98643.78
2023-03-13T17:37:52.349Z,98642.53
2023-03-13T17:40:28.135Z,98649.41
2023-03-13T17:42:56.125Z,98645.84
2023-03-13T17:45:22.565Z,98644.78
2023-03-13T17:47:51.728Z,98644.53
2023-03-13T17:50:26.379Z,98645.06
2023-03-13T17:52:53.553Z,98649.00
2023-03-13T17:55:20.060Z,98650.50
2023-03-13T17:57:48.271Z,98649.84
2023-03-13T18:00:24.797Z,98646.69
2023-03-13T18:02:51.399Z,98648.31
2023-03-13T18:05:18.451Z,98651.53
2023-03-13T18:07:45.165Z,98659.59
2023-03-13T18:10:26.473Z,98656.63
2023-03-13T18:12:53.274Z,98651.19
2023-03-13T18:15:21.299Z,98647.88
2023-03-13T18:17:48.465Z,98650.75
2023-03-13T18:20:21.261Z,98654.38
2023-03-13T18:22:47.919Z,98651.00
2023-03-13T18:25:14.541Z,98653.63
2023-03-13T18:27:41.401Z,98656.13
2023-03-13T18:30:17.317Z,98661.59
2023-03-13T18:32:43.885Z,98644.19
2023-03-13T18:35:12.199Z,98649.91
2023-03-13T18:37:41.898Z,98644.88
2023-03-13T18:40:17.382Z,98654.34
2023-03-13T18:42:43.934Z,98641.16
2023-03-13T18:45:15.349Z,98642.88
2023-03-13T18:47:41.897Z,98638.63
2023-03-13T18:50:18.708Z,98633.53
2023-03-13T18:52:45.159Z,98640.50
2023-03-13T18:55:11.527Z,98639.03
2023-03-13T18:57:38.016Z,98641.41
2023-03-13T19:00:24.438Z,98629.47
2023-03-13T19:02:51.173Z,98637.09
2023-03-13T19:05:18.639Z,98635.97
2023-03-13T19:07:45.528Z,98621.41
2023-03-13T19:10:24.673Z,98613.47
2023-03-13T19:12:52.291Z,98593.00
2023-03-13T19:15:19.306Z,98590.75
2023-03-13T19:17:45.791Z,98591.31
2023-03-13T19:20:18.111Z,98592.56
2023-03-13T19:22:44.628Z,98595.50
2023-03-13T19:25:12.370Z,98605.53
2023-03-13T19:27:40.675Z,98608.47
2023-03-13T19:30:18.173Z,98604.13
2023-03-13T19:32:45.067Z,98598.31
2023-03-13T19:35:12.654Z,98589.69
2023-03-13T19:37:40.342Z,98575.63
2023-03-13T19:40:15.895Z,98580.13
2023-03-13T19:42:42.367Z,98592.75
2023-03-13T19:45:12.168Z,98606.81
2023-03-13T19:47:39.348Z,98610.72
2023-03-13T19:50:06.601Z,98612.59
2023-03-13T19:52:33.109Z,98621.28
2023-03-13T19:55:05.115Z,98619.81
2023-03-13T19:57:32.383Z,98619.03
2023-03-13T19:59:58.961Z,98622.66
2023-03-13T20:02:26.655Z,98622.38
2023-03-13T20:04:53.077Z,98624.78
2023-03-13T20:07:19.507Z,98612.47
2023-03-13T20:09:45.943Z,98621.94
2023-03-13T20:12:12.402Z,98616.22
2023-03-13T20:14:38.923Z,98617.03
2023-03-13T20:17:05.612Z,98601.94
2023-03-13T20:19:32.337Z,98591.38
2023-03-13T20:22:05.092Z,98594.41
2023-03-13T20:24:33.515Z,98591.25
2023-03-13T20:27:00.677Z,98592.03
2023-03-13T20:29:28.140Z,98591.63
2023-03-13T20:31:55.842Z,98586.41
2023-03-13T20:34:22.352Z,98580.34
2023-03-13T20:36:48.866Z,98585.69
2023-03-13T20:39:15.283Z,98581.84
2023-03-13T20:41:41.705Z,98577.59
2023-03-13T20:44:08.108Z,98574.69
2023-03-13T20:46:35.139Z,98582.72
2023-03-13T20:49:01.966Z,98595.56
2023-03-13T20:51:29.000Z,98594.41
2023-03-13T20:53:55.587Z,98603.31
2023-03-13T20:56:22.253Z,98614.22
2023-03-13T20:58:48.722Z,98624.59
2023-03-13T21:01:17.639Z,98616.84
2023-03-13T21:03:44.850Z,98616.63
2023-03-13T21:06:13.944Z,98618.88
2023-03-13T21:08:41.081Z,98625.38
2023-03-13T21:11:15.991Z,98627.09
2023-03-13T21:13:42.539Z,98622.84
2023-03-13T21:16:09.890Z,98613.13
2023-03-13T21:18:36.785Z,98608.53
2023-03-13T21:21:12.271Z,98590.47
2023-03-13T21:23:38.807Z,98588.59
2023-03-13T21:26:05.627Z,98600.16
2023-03-13T21:28:32.688Z,98592.94
2023-03-13T21:30:59.415Z,98576.28
2023-03-13T21:33:25.944Z,98570.84
2023-03-13T21:35:52.445Z,98576.13
2023-03-13T21:38:18.948Z,98559.44
2023-03-13T21:40:45.372Z,98553.84
2023-03-13T21:43:11.794Z,98554.66
2023-03-13T21:45:38.228Z,98557.84
2023-03-13T21:48:04.659Z,98557.06
2023-03-13T21:50:32.599Z,98559.81
2023-03-13T21:52:59.221Z,98556.72
2023-03-13T21:55:25.665Z,98556.72
2023-03-13T21:57:52.108Z,98568.84
2023-03-13T22:00:18.790Z,98567.50
2023-03-13T22:02:45.282Z,98562.81
2023-03-13T22:05:11.836Z,98569.13
2023-03-13T22:07:38.265Z,98565.88
2023-03-13T22:10:05.228Z,98561.81
2023-03-13T22:12:31.763Z,98548.09
2023-03-13T22:14:58.186Z,98550.06
2023-03-13T22:17:24.591Z,98550.47
2023-03-13T22:19:51.105Z,98546.69
2023-03-13T22:22:19.752Z,98550.38
2023-03-13T22:24:46.393Z,98537.19
2023-03-13T22:27:12.938Z,98523.66
2023-03-13T22:29:39.480Z,98512.13
2023-03-13T22:32:05.944Z,98498.56
2023-03-13T22:34:32.994Z,98502.06
2023-03-13T22:36:59.625Z,98493.38
2023-03-13T22:39:26.101Z,98493.38
2023-03-13T22:41:52.497Z,98485.81
2023-03-13T22:44:18.973Z,98491.59
2023-03-13T22:46:45.558Z,98497.47
2023-03-13T22:49:11.980Z,98496.94
2023-03-13T22:51:38.440Z,98500.81
2023-03-13T22:54:04.921Z,98495.84
2023-03-13T22:56:31.583Z,98505.63
2023-03-13T22:58:58.086Z,98508.75
2023-03-13T23:01:24.583Z,98500.75
2023-03-13T23:03:51.358Z,98503.66
2023-03-13T23:06:21.076Z,98506.91
2023-03-13T23:08:47.604Z,98499.78
2023-03-13T23:11:14.974Z,98515.63
2023-03-13T23:13:41.451Z,98520.16
2023-03-13T23:16:10.123Z,98509.56
2023-03-13T23:18:38.377Z,98496.88
2023-03-13T23:21:07.586Z,98470.84
2023-03-13T23:23:34.679Z,98473.03
2023-03-13T23:26:03.104Z,98475.66
2023-03-13T23:28:29.612Z,98477.88
2023-03-13T23:30:56.058Z,98487.34
2023-03-13T23:33:22.777Z,98499.59
2023-03-13T23:35:49.239Z,98513.34
2023-03-13T23:38:18.331Z,98514.66
2023-03-13T23:40:44.822Z,98517.03
2023-03-13T23:43:11.500Z,98514.50
2023-03-13T23:45:38.491Z,98508.09
2023-03-13T23:48:05.586Z,98508.75
2023-03-13T23:50:32.129Z,98511.56
2023-03-13T23:52:58.552Z,98512.22
2023-03-13T23:55:24.978Z,98518.31
2023-03-13T23:57:51.358Z,98509.41
